createdAt,value
2018-02-17T00:02:22.987Z,80.94
2018-02-17T00:04:50.654Z,80.76
2018-02-17T00:07:18.258Z,80.90
2018-02-17T00:09:45.943Z,80.64
2018-02-17T00:12:13.744Z,80.49
2018-02-17T00:14:41.407Z,80.44
2018-02-17T00:17:09.107Z,80.67
2018-02-17T00:19:38.210Z,80.77
2018-02-17T00:22:05.893Z,80.64
2018-02-17T00:24:33.652Z,80.87
2018-02-17T00:27:01.307Z,81.07
2018-02-17T00:29:29.036Z,81.32
2018-02-17T00:31:56.762Z,81.43
2018-02-17T00:34:25.857Z,81.42
2018-02-17T00:36:53.851Z,81.04
2018-02-17T00:39:21.656Z,81.15
2018-02-17T00:41:51.499Z,81.58
2018-02-17T00:44:19.187Z,81.67
2018-02-17T00:46:46.856Z,81.40
2018-02-17T00:49:15.187Z,81.44
2018-02-17T00:51:43.229Z,81.61
2018-02-17T00:54:10.897Z,81.39
2018-02-17T00:56:38.534Z,81.62
2018-02-17T00:59:06.213Z,82.03
2018-02-17T01:01:33.934Z,82.06
2018-02-17T01:04:01.601Z,81.98
2018-02-17T01:06:29.266Z,82.02
2018-02-17T01:08:58.735Z,81.94
2018-02-17T01:11:26.685Z,81.93
2018-02-17T01:13:54.429Z,81.81
2018-02-17T01:16:22.153Z,81.71
2018-02-17T01:18:50.123Z,81.57
2018-02-17T01:21:18.516Z,81.90
2018-02-17T01:23:47.175Z,82.07
2018-02-17T01:26:14.916Z,82.12
2018-02-17T01:28:42.711Z,82.36
2018-02-17T01:31:10.491Z,82.67
2018-02-17T01:33:38.098Z,82.86
2018-02-17T01:36:05.936Z,82.72
2018-02-17T01:38:33.679Z,82.53
2018-02-17T01:41:01.373Z,82.34
2018-02-17T01:43:29.150Z,82.14
2018-02-17T01:45:56.962Z,82.08
2018-02-17T01:48:24.656Z,82.20
2018-02-17T01:50:52.283Z,82.31
2018-02-17T01:53:20.043Z,82.57
2018-02-17T01:55:47.795Z,82.77
2018-02-17T01:58:15.482Z,82.83
2018-02-17T02:00:43.235Z,83.17
2018-02-17T02:03:10.878Z,83.39
2018-02-17T02:05:39.225Z,83.30
2018-02-17T02:08:06.939Z,83.01
2018-02-17T02:10:34.655Z,82.96
2018-02-17T02:13:02.378Z,83.21
2018-02-17T02:15:30.065Z,83.22
2018-02-17T02:17:59.074Z,83.11
2018-02-17T02:20:26.935Z,82.86
2018-02-17T02:22:54.613Z,82.85
2018-02-17T02:25:22.424Z,82.76
2018-02-17T02:27:50.045Z,82.50
2018-02-17T02:30:17.803Z,82.37
2018-02-17T02:32:45.514Z,82.34
2018-02-17T02:35:13.323Z,82.36
2018-02-17T02:37:41.082Z,82.43
2018-02-17T02:40:11.674Z,82.69
2018-02-17T02:42:39.790Z,82.80
2018-02-17T02:45:08.993Z,82.68
2018-02-17T02:47:36.788Z,82.85
2018-02-17T02:50:04.484Z,83.02
2018-02-17T02:52:32.254Z,82.76
2018-02-17T02:54:59.923Z,83.06
2018-02-17T02:57:27.616Z,83.22
2018-02-17T02:59:55.422Z,83.36
2018-02-17T03:02:23.103Z,83.26
2018-02-17T03:04:50.807Z,83.19
2018-02-17T03:07:18.440Z,83.43
2018-02-17T03:09:46.075Z,83.98
2018-02-17T03:12:13.670Z,84.65
2018-02-17T03:14:41.307Z,84.91
2018-02-17T03:17:08.899Z,85.27
2018-02-17T03:19:36.538Z,85.39
2018-02-17T03:22:04.127Z,85.48
2018-02-17T03:24:31.753Z,85.28
2018-02-17T03:26:59.332Z,84.84
2018-02-17T03:29:26.995Z,84.75
2018-02-17T03:31:54.592Z,84.64
2018-02-17T03:34:22.210Z,84.59
2018-02-17T03:36:49.815Z,84.77
2018-02-17T03:39:17.440Z,84.91
2018-02-17T03:41:45.070Z,85.63
2018-02-17T03:44:12.735Z,86.21
2018-02-17T03:46:40.336Z,86.52
2018-02-17T03:49:08.034Z,86.53
2018-02-17T03:51:35.635Z,86.36
2018-02-17T03:54:03.252Z,86.02
2018-02-17T03:56:30.908Z,85.69
2018-02-17T03:58:58.551Z,85.37
2018-02-17T04:01:26.143Z,84.88
2018-02-17T04:03:53.798Z,84.68
2018-02-17T04:06:21.407Z,84.53
2018-02-17T04:08:49.071Z,84.54
2018-02-17T04:11:16.755Z,84.49
2018-02-17T04:13:44.448Z,84.58
2018-02-17T04:16:12.242Z,84.46
2018-02-17T04:18:40.825Z,84.48
2018-02-17T04:21:08.488Z,84.29
2018-02-17T04:23:36.191Z,84.12
2018-02-17T04:26:03.816Z,83.85
2018-02-17T04:28:31.427Z,83.62
2018-02-17T04:30:59.022Z,83.77
2018-02-17T04:33:26.732Z,83.86
2018-02-17T04:35:54.337Z,83.85
2018-02-17T04:38:21.947Z,84.00
2018-02-17T04:40:54.860Z,84.08
2018-02-17T04:43:26.287Z,84.14
2018-02-17T04:46:00.413Z,84.27
2018-02-17T04:48:28.550Z,84.42
2018-02-17T04:50:56.142Z,84.43
2018-02-17T04:53:38.618Z,84.45
2018-02-17T04:56:10.747Z,84.57
2018-02-17T05:12:14.110Z,85.31
2018-02-17T05:17:59.402Z,85.61
2018-02-17T05:20:30.816Z,85.77
2018-02-17T05:26:00.970Z,85.35
2018-02-17T05:28:37.063Z,85.31
2018-02-17T05:31:07.500Z,85.44
2018-02-17T05:36:35.473Z,85.92
2018-02-17T05:39:05.548Z,86.00
2018-02-17T05:41:52.632Z,85.84
2018-02-17T05:44:20.287Z,85.43
2018-02-17T05:46:47.980Z,85.32
2018-02-17T05:49:18.547Z,85.39
2018-02-17T05:51:46.162Z,85.35
2018-02-17T05:54:13.804Z,85.28
2018-02-17T05:56:41.442Z,85.36
2018-02-17T05:59:09.174Z,85.48
2018-02-17T06:01:36.796Z,85.57
2018-02-17T06:04:04.548Z,85.78
2018-02-17T06:06:32.154Z,85.93
2018-02-17T06:08:59.792Z,85.99
2018-02-17T06:11:27.510Z,85.89
2018-02-17T06:13:55.163Z,85.69
2018-02-17T06:16:22.772Z,85.71
2018-02-17T06:18:50.445Z,85.80
2018-02-17T06:21:18.144Z,85.94
2018-02-17T06:23:45.943Z,86.13
2018-02-17T06:26:13.636Z,86.16
2018-02-17T06:28:41.385Z,86.09
2018-02-17T06:31:09.030Z,85.85
2018-02-17T06:33:36.694Z,85.99
2018-02-17T06:36:04.630Z,86.04
2018-02-17T06:38:33.191Z,86.18
2018-02-17T06:41:00.939Z,86.18
2018-02-17T06:43:29.004Z,86.17
2018-02-17T06:45:56.614Z,86.04
2018-02-17T06:48:24.287Z,85.87
2018-02-17T06:50:51.928Z,85.71
2018-02-17T06:53:19.651Z,85.49
2018-02-17T06:55:47.381Z,85.04
2018-02-17T06:58:15.006Z,84.91
2018-02-17T07:00:42.647Z,84.73
2018-02-17T07:03:10.305Z,84.71
2018-02-17T07:05:37.999Z,84.70
2018-02-17T07:08:05.620Z,84.80
2018-02-17T07:10:33.274Z,84.79
2018-02-17T07:13:00.891Z,84.70
2018-02-17T07:15:28.654Z,84.55
2018-02-17T07:17:56.279Z,84.50
2018-02-17T07:20:23.937Z,84.35
2018-02-17T07:22:51.594Z,84.03
2018-02-17T07:25:19.259Z,84.20
2018-02-17T07:27:46.957Z,84.33
2018-02-17T07:30:14.587Z,84.32
2018-02-17T07:32:42.208Z,84.38
2018-02-17T07:35:09.865Z,84.44
2018-02-17T07:37:37.675Z,84.32
2018-02-17T07:40:05.350Z,84.28
2018-02-17T07:42:32.991Z,84.18
2018-02-17T07:45:00.722Z,84.14
2018-02-17T07:47:28.339Z,84.11
2018-02-17T07:49:56.065Z,84.22
2018-02-17T07:52:23.710Z,84.22
2018-02-17T07:54:51.393Z,84.16
2018-02-17T07:57:19.048Z,84.15
2018-02-17T07:59:46.709Z,84.17
2018-02-17T08:02:14.344Z,84.19
2018-02-17T08:04:42.049Z,84.31
2018-02-17T08:07:09.713Z,84.46
2018-02-17T08:09:37.373Z,84.40
2018-02-17T08:12:04.975Z,84.31
2018-02-17T08:14:32.603Z,84.01
2018-02-17T08:17:00.251Z,83.82
2018-02-17T08:19:27.888Z,83.77
2018-02-17T08:21:55.545Z,83.73
2018-02-17T08:24:23.155Z,83.68
2018-02-17T08:26:50.805Z,83.71
2018-02-17T08:29:18.429Z,83.66
2018-02-17T08:31:46.112Z,83.37
2018-02-17T08:34:13.742Z,83.51
2018-02-17T08:36:41.415Z,83.57
2018-02-17T08:39:09.027Z,83.68
2018-02-17T08:41:36.683Z,83.84
2018-02-17T08:44:04.286Z,84.07
2018-02-17T08:46:31.932Z,84.26
2018-02-17T08:48:59.535Z,84.29
2018-02-17T08:51:27.204Z,83.81
2018-02-17T08:53:54.833Z,83.60
2018-02-17T08:56:22.500Z,83.38
2018-02-17T08:58:50.119Z,82.99
2018-02-17T09:01:17.764Z,82.99
2018-02-17T09:03:45.387Z,82.49
2018-02-17T09:06:13.066Z,82.07
2018-02-17T09:08:40.759Z,82.26
2018-02-17T09:11:08.439Z,82.21
2018-02-17T09:13:36.130Z,82.10
2018-02-17T09:16:03.810Z,81.05
2018-02-17T09:18:31.467Z,81.00
2018-02-17T09:20:59.104Z,82.67
2018-02-17T09:23:26.720Z,81.60
2018-02-17T09:25:54.423Z,80.93
2018-02-17T09:28:22.038Z,78.77
2018-02-17T09:30:49.694Z,78.34
2018-02-17T09:33:17.340Z,78.07
2018-02-17T09:35:45.020Z,77.75
2018-02-17T09:38:12.631Z,77.15
2018-02-17T09:40:40.276Z,76.73
2018-02-17T09:43:07.962Z,77.00
2018-02-17T09:45:35.670Z,78.32
2018-02-17T09:48:03.287Z,79.76
2018-02-17T09:50:30.984Z,78.98
2018-02-17T09:52:58.601Z,77.31
2018-02-17T09:55:26.256Z,77.30
2018-02-17T09:57:53.958Z,77.37
2018-02-17T10:00:21.620Z,76.90
2018-02-17T10:02:49.352Z,77.02
2018-02-17T10:05:17.042Z,77.19
2018-02-17T10:07:44.689Z,77.64
2018-02-17T10:10:12.309Z,77.37
2018-02-17T10:12:39.959Z,75.51
2018-02-17T10:15:07.560Z,76.24
2018-02-17T10:17:35.243Z,75.75
2018-02-17T10:20:02.883Z,74.17
2018-02-17T10:22:30.595Z,74.12
2018-02-17T10:24:58.296Z,74.38
2018-02-17T10:27:26.009Z,74.30
2018-02-17T10:29:53.920Z,73.66
2018-02-17T10:32:21.683Z,73.31
2018-02-17T10:34:49.432Z,71.05
2018-02-17T10:37:17.060Z,71.18
2018-02-17T10:39:44.737Z,70.39
2018-02-17T10:42:12.499Z,71.54
2018-02-17T10:44:40.232Z,71.56
2018-02-17T10:47:07.975Z,70.30
2018-02-17T10:49:35.730Z,69.50
2018-02-17T10:52:03.392Z,68.60
2018-02-17T10:54:31.036Z,69.00
2018-02-17T10:56:58.684Z,68.07
2018-02-17T10:59:26.426Z,68.90
2018-02-17T11:01:54.086Z,68.58
2018-02-17T11:04:21.719Z,68.40
2018-02-17T11:06:49.363Z,68.09
2018-02-17T11:09:17.007Z,66.70
2018-02-17T11:11:44.794Z,67.47
2018-02-17T11:14:12.429Z,67.01
2018-02-17T11:16:40.143Z,66.76
2018-02-17T11:19:07.929Z,66.78
2018-02-17T11:21:35.595Z,66.15
2018-02-17T11:24:03.273Z,65.80
2018-02-17T11:26:30.932Z,64.00
2018-02-17T11:28:58.587Z,64.55
2018-02-17T11:31:26.391Z,63.99
2018-02-17T11:33:54.036Z,63.81
2018-02-17T11:36:21.731Z,63.28
2018-02-17T11:38:49.422Z,63.29
2018-02-17T11:41:17.110Z,62.65
2018-02-17T11:43:44.780Z,63.11
2018-02-17T11:46:12.452Z,62.62
2018-02-17T11:48:40.063Z,62.00
2018-02-17T11:51:07.716Z,61.74
2018-02-17T11:53:35.374Z,61.88
2018-02-17T11:56:03.029Z,61.50
2018-02-17T11:58:30.681Z,60.78
2018-02-17T12:00:58.340Z,61.08
2018-02-17T12:03:26.017Z,61.90
2018-02-17T12:05:53.643Z,61.07
2018-02-17T12:08:21.268Z,60.67
2018-02-17T12:10:48.959Z,59.32
2018-02-17T12:13:16.576Z,59.67
2018-02-17T12:15:44.263Z,61.19
2018-02-17T12:18:11.923Z,61.09
2018-02-17T12:20:39.763Z,60.03
2018-02-17T12:23:07.418Z,60.02
2018-02-17T12:25:35.100Z,59.53
2018-02-17T12:28:02.811Z,59.65
2018-02-17T12:30:30.490Z,60.02
2018-02-17T12:32:58.122Z,60.00
2018-02-17T12:35:25.779Z,59.88
2018-02-17T12:37:53.531Z,60.44
2018-02-17T12:40:21.231Z,59.79
2018-02-17T12:42:48.902Z,59.07
2018-02-17T12:45:16.568Z,58.93
2018-02-17T12:47:44.261Z,59.61
2018-02-17T12:50:11.931Z,58.68
2018-02-17T12:52:39.664Z,58.50
2018-02-17T12:55:07.381Z,58.10
2018-02-17T12:57:35.823Z,56.86
2018-02-17T13:00:03.524Z,56.42
2018-02-17T13:02:31.289Z,56.33
2018-02-17T13:04:59.081Z,55.88
2018-02-17T13:07:27.764Z,56.04
2018-02-17T13:09:55.699Z,55.70
2018-02-17T13:12:23.380Z,56.07
2018-02-17T13:14:53.147Z,56.14
2018-02-17T13:17:20.983Z,54.93
2018-02-17T13:19:49.064Z,54.70
2018-02-17T13:22:17.583Z,54.51
2018-02-17T13:24:46.255Z,54.89
2018-02-17T13:27:14.167Z,55.53
2018-02-17T13:29:41.957Z,55.18
2018-02-17T13:32:09.795Z,53.62
2018-02-17T13:34:37.620Z,54.38
2018-02-17T13:37:05.302Z,55.30
2018-02-17T13:39:33.065Z,54.84
2018-02-17T13:42:00.707Z,53.59
2018-02-17T13:44:29.270Z,52.76
2018-02-17T13:46:56.901Z,51.55
2018-02-17T13:49:24.590Z,50.98
2018-02-17T13:51:52.203Z,50.55
2018-02-17T13:54:19.901Z,49.79
2018-02-17T13:56:47.530Z,49.69
2018-02-17T13:59:15.244Z,50.80
2018-02-17T14:01:42.938Z,51.95
2018-02-17T14:04:10.736Z,52.93
2018-02-17T14:06:38.381Z,54.02
2018-02-17T14:09:06.011Z,53.81
2018-02-17T14:11:33.634Z,53.93
2018-02-17T14:14:01.284Z,53.77
2018-02-17T14:16:28.960Z,54.07
2018-02-17T14:18:56.614Z,54.72
2018-02-17T14:21:24.252Z,54.74
2018-02-17T14:23:51.887Z,55.62
2018-02-17T14:26:19.531Z,56.07
2018-02-17T14:28:47.320Z,55.96
2018-02-17T14:31:14.945Z,55.55
2018-02-17T14:33:42.766Z,55.88
2018-02-17T14:36:10.395Z,56.34
2018-02-17T14:38:38.046Z,56.77
2018-02-17T14:41:05.784Z,57.48
2018-02-17T14:43:33.476Z,56.07
2018-02-17T14:46:01.142Z,56.18
2018-02-17T14:48:28.785Z,56.38
2018-02-17T14:50:56.415Z,56.00
2018-02-17T14:53:24.047Z,56.46
2018-02-17T14:55:51.664Z,56.48
2018-02-17T14:58:19.440Z,56.69
2018-02-17T15:00:47.076Z,56.38
2018-02-17T15:03:15.663Z,55.38
2018-02-17T15:05:43.345Z,55.73
2018-02-17T15:08:11.002Z,55.25
2018-02-17T15:10:38.657Z,54.88
2018-02-17T15:13:06.298Z,54.93
2018-02-17T15:15:33.939Z,54.91
2018-02-17T15:18:01.610Z,54.80
2018-02-17T15:20:29.227Z,55.43
2018-02-17T15:22:57.007Z,55.25
2018-02-17T15:25:24.656Z,55.03
2018-02-17T15:27:52.304Z,55.30
2018-02-17T15:30:19.918Z,55.34
2018-02-17T15:32:47.554Z,53.01
2018-02-17T15:35:15.424Z,52.60
2018-02-17T15:37:43.052Z,52.66
2018-02-17T15:40:10.693Z,52.39
2018-02-17T15:42:38.382Z,52.12
2018-02-17T15:45:06.066Z,51.85
2018-02-17T15:47:33.719Z,52.49
2018-02-17T15:50:01.343Z,52.58
2018-02-17T15:52:29.137Z,53.40
2018-02-17T15:54:56.756Z,53.99
2018-02-17T15:57:24.430Z,54.73
2018-02-17T15:59:52.057Z,55.40
2018-02-17T16:02:19.658Z,54.58
2018-02-17T16:04:47.526Z,54.42
2018-02-17T16:07:15.115Z,53.53
2018-02-17T16:09:42.784Z,53.21
2018-02-17T16:12:10.414Z,53.24
2018-02-17T16:14:38.060Z,53.56
2018-02-17T16:17:05.678Z,53.11
2018-02-17T16:19:33.354Z,53.08
2018-02-17T16:22:00.976Z,53.36
2018-02-17T16:24:28.660Z,52.90
2018-02-17T16:26:56.330Z,53.75
2018-02-17T16:29:23.967Z,53.26
2018-02-17T16:31:51.673Z,53.50
2018-02-17T16:34:19.393Z,54.47
2018-02-17T16:36:47.015Z,54.94
2018-02-17T16:39:14.697Z,55.48
2018-02-17T16:41:42.416Z,55.81
2018-02-17T16:44:10.215Z,55.95
2018-02-17T16:46:37.909Z,56.48
2018-02-17T16:49:05.599Z,56.80
2018-02-17T16:51:33.271Z,57.26
2018-02-17T16:54:00.979Z,57.34
2018-02-17T16:56:28.667Z,58.14
2018-02-17T16:58:56.376Z,58.61
2018-02-17T17:01:24.033Z,59.19
2018-02-17T17:03:51.706Z,59.60
2018-02-17T17:06:19.355Z,59.81
2018-02-17T17:08:47.034Z,60.53
2018-02-17T17:11:14.689Z,60.89
2018-02-17T17:13:42.384Z,61.05
2018-02-17T17:16:10.025Z,61.56
2018-02-17T17:18:37.702Z,61.69
2018-02-17T17:21:05.431Z,61.56
2018-02-17T17:23:33.158Z,61.53
2018-02-17T17:26:00.864Z,61.55
2018-02-17T17:28:28.546Z,61.71
2018-02-17T17:30:56.268Z,61.79
2018-02-17T17:33:24.091Z,61.88
2018-02-17T17:35:51.781Z,62.20
2018-02-17T17:38:19.428Z,62.64
2018-02-17T17:40:47.083Z,62.90
2018-02-17T17:43:14.858Z,63.23
2018-02-17T17:45:42.507Z,63.74
2018-02-17T17:48:10.215Z,64.03
2018-02-17T17:50:37.865Z,64.25
2018-02-17T17:53:05.611Z,64.10
2018-02-17T17:55:33.255Z,64.36
2018-02-17T17:58:00.952Z,64.68
2018-02-17T18:00:28.572Z,64.79
2018-02-17T18:02:56.250Z,64.77
2018-02-17T18:05:24.007Z,65.07
2018-02-17T18:07:53.470Z,65.32
2018-02-17T18:10:21.409Z,65.62
2018-02-17T18:12:49.819Z,65.84
2018-02-17T18:15:19.243Z,65.86
2018-02-17T18:17:47.161Z,65.80
2018-02-17T18:20:14.928Z,65.84
2018-02-17T18:22:42.664Z,66.16
2018-02-17T18:25:10.382Z,66.18
2018-02-17T18:27:38.101Z,66.41
2018-02-17T18:30:05.780Z,66.87
2018-02-17T18:32:33.579Z,66.56
2018-02-17T18:35:01.327Z,66.61
2018-02-17T18:37:29.061Z,66.82
2018-02-17T18:39:56.707Z,66.91
2018-02-17T18:42:24.370Z,67.05
2018-02-17T18:44:52.028Z,67.18
2018-02-17T18:47:19.724Z,67.33
2018-02-17T18:49:47.366Z,67.62
2018-02-17T18:52:15.031Z,67.83
2018-02-17T18:54:42.692Z,68.02
2018-02-17T18:57:10.440Z,68.17
2018-02-17T18:59:38.359Z,67.92
2018-02-17T19:02:06.163Z,67.90
2018-02-17T19:04:33.841Z,68.12
2018-02-17T19:07:01.608Z,68.45
2018-02-17T19:09:29.229Z,68.52
2018-02-17T19:11:56.929Z,68.83
2018-02-17T19:14:25.176Z,68.99
2018-02-17T19:16:52.878Z,69.46
2018-02-17T19:19:20.562Z,69.64
2018-02-17T19:21:48.380Z,69.98
2018-02-17T19:24:16.188Z,70.01
2018-02-17T19:26:43.934Z,70.20
2018-02-17T19:29:12.498Z,70.53
2018-02-17T19:31:40.256Z,70.64
2018-02-17T19:34:08.044Z,70.79
2018-02-17T19:36:35.778Z,70.87
2018-02-17T19:39:03.533Z,71.12
2018-02-17T19:41:31.325Z,71.34
2018-02-17T19:43:59.137Z,71.46
2018-02-17T19:46:26.935Z,71.61
2018-02-17T19:48:55.543Z,71.62
2018-02-17T19:51:23.386Z,71.91
2018-02-17T19:53:51.160Z,72.13
2018-02-17T19:56:19.023Z,72.20
2018-02-17T19:58:46.706Z,72.13
2018-02-17T20:01:14.509Z,72.24
2018-02-17T20:03:42.266Z,72.38
2018-02-17T20:06:10.025Z,72.58
2018-02-17T20:08:37.799Z,72.50
2018-02-17T20:11:05.580Z,72.46
2018-02-17T20:13:33.339Z,72.53
2018-02-17T20:16:01.196Z,72.75
2018-02-17T20:18:28.947Z,73.08
2018-02-17T20:20:56.719Z,73.12
2018-02-17T20:23:24.454Z,72.87
2018-02-17T20:25:52.237Z,72.61
2018-02-17T20:28:20.021Z,72.56
2018-02-17T20:30:47.911Z,72.56
2018-02-17T20:33:15.788Z,72.61
2018-02-17T20:35:43.578Z,72.62
2018-02-17T20:38:11.335Z,72.33
2018-02-17T20:40:39.111Z,72.51
2018-02-17T20:43:06.915Z,72.74
2018-02-17T20:45:34.713Z,72.54
2018-02-17T20:48:02.508Z,72.99
2018-02-17T20:50:30.265Z,73.70
2018-02-17T20:52:58.136Z,74.06
2018-02-17T20:55:26.685Z,74.34
2018-02-17T20:57:54.646Z,74.77
2018-02-17T21:00:25.430Z,74.93
2018-02-17T21:02:53.213Z,74.84
2018-02-17T21:05:21.734Z,75.07
2018-02-17T21:07:50.460Z,75.17
2018-02-17T21:10:18.274Z,75.42
2018-02-17T21:12:46.088Z,75.68
2018-02-17T21:15:13.911Z,75.84
2018-02-17T21:17:41.751Z,75.87
2018-02-17T21:20:09.580Z,75.42
2018-02-17T21:22:37.355Z,75.48
2018-02-17T21:25:05.191Z,76.17
2018-02-17T21:27:33.010Z,76.58
2018-02-17T21:30:00.828Z,76.82
2018-02-17T21:32:28.692Z,76.92
2018-02-17T21:34:56.495Z,76.71
2018-02-17T21:37:24.299Z,76.78
2018-02-17T21:39:52.102Z,76.72
2018-02-17T21:42:19.866Z,76.90
2018-02-17T21:44:47.665Z,77.17
2018-02-17T21:47:15.428Z,77.21
2018-02-17T21:49:43.245Z,77.30
2018-02-17T21:52:11.040Z,77.26
2018-02-17T21:54:38.810Z,77.33
2018-02-17T21:57:06.617Z,77.41
2018-02-17T21:59:34.349Z,77.47
2018-02-17T22:02:02.173Z,78.15
2018-02-17T22:04:29.894Z,79.14
2018-02-17T22:06:57.659Z,78.32
2018-02-17T22:09:25.474Z,77.40
2018-02-17T22:11:53.373Z,77.08
2018-02-17T22:14:21.172Z,77.02
2018-02-17T22:16:48.922Z,76.96
2018-02-17T22:19:16.701Z,77.14
2018-02-17T22:21:44.509Z,77.06
2018-02-17T22:24:12.232Z,77.01
2018-02-17T22:26:40.016Z,77.83
2018-02-17T22:29:07.801Z,78.18
2018-02-17T22:31:35.552Z,77.77
2018-02-17T22:34:03.252Z,77.10
2018-02-17T22:36:31.027Z,77.00
2018-02-17T22:38:58.733Z,76.94
2018-02-17T22:41:26.532Z,77.03
2018-02-17T22:43:54.208Z,76.85
2018-02-17T22:46:22.669Z,76.79
2018-02-17T22:48:50.395Z,76.60
2018-02-17T22:51:18.164Z,76.93
2018-02-17T22:53:45.902Z,77.33
2018-02-17T22:56:13.616Z,77.52
2018-02-17T22:58:41.380Z,77.43
2018-02-17T23:01:09.089Z,77.81
2018-02-17T23:03:36.875Z,77.98
2018-02-17T23:06:04.620Z,77.87
2018-02-17T23:08:32.336Z,78.04
2018-02-17T23:11:00.177Z,78.04
2018-02-17T23:13:27.859Z,77.88
2018-02-17T23:15:55.650Z,77.91
2018-02-17T23:18:23.356Z,77.54
2018-02-17T23:20:51.102Z,77.61
2018-02-17T23:23:18.760Z,77.56
2018-02-17T23:25:47.090Z,77.67
2018-02-17T23:28:14.882Z,78.27
2018-02-17T23:30:42.750Z,78.53
2018-02-17T23:33:10.518Z,78.26
2018-02-17T23:35:38.469Z,78.23
2018-02-17T23:38:06.461Z,78.03
2018-02-17T23:40:34.350Z,77.81
2018-02-17T23:43:02.267Z,77.89
2018-02-17T23:45:30.144Z,78.44
2018-02-17T23:47:57.907Z,78.77
2018-02-17T23:50:25.708Z,78.94
2018-02-17T23:52:53.484Z,79.44
2018-02-17T23:55:21.324Z,79.53
2018-02-17T23:57:49.080Z,79.93
